sensor_id;sensor_type;location;lat;lon;timestamp;P1;durP1;ratioP1;P2;durP2;ratioP2
15848;SDS011;8024;48.708;9.394;2022-07-11T00:02:01;2.23;;;1.00;;
15848;SDS011;8024;48.708;9.394;2022-07-11T00:04:28;0.93;;;0.80;;
15848;SDS011;8024;48.708;9.394;2022-07-11T00:06:56;0.87;;;0.80;;
15848;SDS011;8024;48.708;9.394;2022-07-11T00:09:25;2.17;;;0.87;;
15848;SDS011;8024;48.708;9.394;2022-07-11T00:11:52;2.13;;;1.20;;
15848;SDS011;8024;48.708;9.394;2022-07-11T00:14:20;1.87;;;0.70;;
15848;SDS011;8024;48.708;9.394;2022-07-11T00:16:48;1.23;;;0.90;;
15848;SDS011;8024;48.708;9.394;2022-07-11T00:19:15;1.53;;;0.90;;
15848;SDS011;8024;48.708;9.394;2022-07-11T00:21:43;1.33;;;1.00;;
15848;SDS011;8024;48.708;9.394;2022-07-11T00:24:10;1.43;;;0.87;;
15848;SDS011;8024;48.708;9.394;2022-07-11T00:26:39;1.93;;;1.13;;
15848;SDS011;8024;48.708;9.394;2022-07-11T00:29:06;0.93;;;0.93;;
15848;SDS011;8024;48.708;9.394;2022-07-11T00:31:33;3.20;;;1.20;;
15848;SDS011;8024;48.708;9.394;2022-07-11T00:34:00;2.27;;;1.13;;
15848;SDS011;8024;48.708;9.394;2022-07-11T00:36:27;1.57;;;0.90;;
15848;SDS011;8024;48.708;9.394;2022-07-11T00:38:55;0.97;;;0.90;;
15848;SDS011;8024;48.708;9.394;2022-07-11T00:41:22;1.17;;;0.80;;
15848;SDS011;8024;48.708;9.394;2022-07-11T00:43:53;3.27;;;1.20;;
15848;SDS011;8024;48.708;9.394;2022-07-11T00:46:22;2.43;;;0.80;;
15848;SDS011;8024;48.708;9.394;2022-07-11T00:48:50;1.70;;;0.77;;
15848;SDS011;8024;48.708;9.394;2022-07-11T00:51:19;1.50;;;0.80;;
15848;SDS011;8024;48.708;9.394;2022-07-11T00:53:48;1.53;;;0.67;;
15848;SDS011;8024;48.708;9.394;2022-07-11T00:56:16;0.93;;;0.63;;
15848;SDS011;8024;48.708;9.394;2022-07-11T00:58:45;1.87;;;0.80;;
15848;SDS011;8024;48.708;9.394;2022-07-11T01:01:14;3.37;;;0.70;;
15848;SDS011;8024;48.708;9.394;2022-07-11T01:03:42;1.80;;;0.70;;
15848;SDS011;8024;48.708;9.394;2022-07-11T01:06:09;0.90;;;0.57;;
15848;SDS011;8024;48.708;9.394;2022-07-11T01:08:37;1.13;;;0.80;;
15848;SDS011;8024;48.708;9.394;2022-07-11T01:11:07;1.60;;;1.37;;
15848;SDS011;8024;48.708;9.394;2022-07-11T01:13:37;1.10;;;1.00;;
15848;SDS011;8024;48.708;9.394;2022-07-11T01:16:12;1.07;;;0.90;;
15848;SDS011;8024;48.708;9.394;2022-07-11T01:18:41;1.43;;;0.93;;
15848;SDS011;8024;48.708;9.394;2022-07-11T01:21:10;1.30;;;1.17;;
15848;SDS011;8024;48.708;9.394;2022-07-11T01:23:48;3.37;;;1.03;;
15848;SDS011;8024;48.708;9.394;2022-07-11T01:26:16;2.10;;;0.77;;
15848;SDS011;8024;48.708;9.394;2022-07-11T01:28:45;1.13;;;1.10;;
15848;SDS011;8024;48.708;9.394;2022-07-11T01:31:13;2.27;;;1.00;;
15848;SDS011;8024;48.708;9.394;2022-07-11T01:33:40;3.13;;;1.03;;
15848;SDS011;8024;48.708;9.394;2022-07-11T01:36:08;2.50;;;0.90;;
15848;SDS011;8024;48.708;9.394;2022-07-11T01:38:35;2.33;;;1.20;;
15848;SDS011;8024;48.708;9.394;2022-07-11T01:41:04;2.43;;;1.17;;
15848;SDS011;8024;48.708;9.394;2022-07-11T01:43:32;1.23;;;1.03;;
15848;SDS011;8024;48.708;9.394;2022-07-11T01:45:59;1.70;;;1.07;;
15848;SDS011;8024;48.708;9.394;2022-07-11T01:48:26;1.70;;;0.90;;
15848;SDS011;8024;48.708;9.394;2022-07-11T01:50:53;1.23;;;0.77;;
15848;SDS011;8024;48.708;9.394;2022-07-11T01:53:20;2.00;;;1.23;;
15848;SDS011;8024;48.708;9.394;2022-07-11T01:55:48;2.07;;;1.40;;
15848;SDS011;8024;48.708;9.394;2022-07-11T01:58:17;2.33;;;1.00;;
15848;SDS011;8024;48.708;9.394;2022-07-11T02:00:44;1.87;;;1.07;;
15848;SDS011;8024;48.708;9.394;2022-07-11T02:03:12;2.10;;;1.00;;
15848;SDS011;8024;48.708;9.394;2022-07-11T02:05:39;1.90;;;1.10;;
15848;SDS011;8024;48.708;9.394;2022-07-11T02:08:07;1.03;;;0.90;;
15848;SDS011;8024;48.708;9.394;2022-07-11T02:10:41;2.90;;;1.33;;
15848;SDS011;8024;48.708;9.394;2022-07-11T02:13:10;2.90;;;0.90;;
15848;SDS011;8024;48.708;9.394;2022-07-11T02:15:39;2.77;;;1.13;;
15848;SDS011;8024;48.708;9.394;2022-07-11T02:18:07;2.90;;;1.20;;
15848;SDS011;8024;48.708;9.394;2022-07-11T02:20:37;0.70;;;0.70;;
15848;SDS011;8024;48.708;9.394;2022-07-11T02:23:04;1.07;;;0.93;;
15848;SDS011;8024;48.708;9.394;2022-07-11T02:25:32;1.67;;;1.00;;
15848;SDS011;8024;48.708;9.394;2022-07-11T02:28:03;1.93;;;1.00;;
15848;SDS011;8024;48.708;9.394;2022-07-11T02:30:33;2.73;;;1.00;;
15848;SDS011;8024;48.708;9.394;2022-07-11T02:33:01;1.70;;;1.30;;
15848;SDS011;8024;48.708;9.394;2022-07-11T02:35:29;1.70;;;1.10;;
15848;SDS011;8024;48.708;9.394;2022-07-11T02:37:56;1.57;;;1.23;;
15848;SDS011;8024;48.708;9.394;2022-07-11T02:40:23;3.13;;;1.43;;
15848;SDS011;8024;48.708;9.394;2022-07-11T02:42:51;2.17;;;1.10;;
15848;SDS011;8024;48.708;9.394;2022-07-11T02:45:19;1.47;;;1.33;;
15848;SDS011;8024;48.708;9.394;2022-07-11T02:47:46;1.27;;;1.17;;
15848;SDS011;8024;48.708;9.394;2022-07-11T02:50:14;0.83;;;0.83;;
15848;SDS011;8024;48.708;9.394;2022-07-11T02:52:42;0.87;;;0.80;;
15848;SDS011;8024;48.708;9.394;2022-07-11T02:55:10;2.00;;;1.20;;
15848;SDS011;8024;48.708;9.394;2022-07-11T02:57:38;2.47;;;1.00;;
15848;SDS011;8024;48.708;9.394;2022-07-11T03:00:07;2.63;;;1.10;;
15848;SDS011;8024;48.708;9.394;2022-07-11T03:02:36;2.50;;;1.00;;
15848;SDS011;8024;48.708;9.394;2022-07-11T03:05:03;1.13;;;0.90;;
15848;SDS011;8024;48.708;9.394;2022-07-11T03:07:32;1.73;;;1.10;;
15848;SDS011;8024;48.708;9.394;2022-07-11T03:10:00;1.20;;;1.20;;
15848;SDS011;8024;48.708;9.394;2022-07-11T03:12:27;1.90;;;1.10;;
15848;SDS011;8024;48.708;9.394;2022-07-11T03:14:55;1.37;;;1.20;;
15848;SDS011;8024;48.708;9.394;2022-07-11T03:17:22;2.87;;;1.20;;
15848;SDS011;8024;48.708;9.394;2022-07-11T03:19:49;1.43;;;1.20;;
15848;SDS011;8024;48.708;9.394;2022-07-11T03:22:17;1.07;;;0.90;;
15848;SDS011;8024;48.708;9.394;2022-07-11T03:24:45;1.93;;;1.03;;
15848;SDS011;8024;48.708;9.394;2022-07-11T03:27:13;3.00;;;1.27;;
15848;SDS011;8024;48.708;9.394;2022-07-11T03:29:40;2.40;;;1.20;;
15848;SDS011;8024;48.708;9.394;2022-07-11T03:32:07;2.67;;;1.33;;
15848;SDS011;8024;48.708;9.394;2022-07-11T03:34:35;3.10;;;1.40;;
15848;SDS011;8024;48.708;9.394;2022-07-11T03:37:03;1.50;;;1.00;;
15848;SDS011;8024;48.708;9.394;2022-07-11T03:39:30;2.37;;;1.30;;
15848;SDS011;8024;48.708;9.394;2022-07-11T03:41:59;1.73;;;1.00;;
15848;SDS011;8024;48.708;9.394;2022-07-11T03:44:26;2.57;;;1.13;;
15848;SDS011;8024;48.708;9.394;2022-07-11T03:46:54;2.70;;;0.90;;
15848;SDS011;8024;48.708;9.394;2022-07-11T03:49:21;1.83;;;1.07;;
15848;SDS011;8024;48.708;9.394;2022-07-11T03:51:48;1.20;;;1.10;;
15848;SDS011;8024;48.708;9.394;2022-07-11T03:54:18;2.80;;;1.40;;
15848;SDS011;8024;48.708;9.394;2022-07-11T03:56:45;3.87;;;1.20;;
15848;SDS011;8024;48.708;9.394;2022-07-11T03:59:13;1.10;;;1.00;;
15848;SDS011;8024;48.708;9.394;2022-07-11T04:01:41;2.03;;;1.20;;
15848;SDS011;8024;48.708;9.394;2022-07-11T04:04:08;2.80;;;1.33;;
15848;SDS011;8024;48.708;9.394;2022-07-11T04:06:35;2.20;;;1.47;;
15848;SDS011;8024;48.708;9.394;2022-07-11T04:09:03;1.20;;;1.00;;
15848;SDS011;8024;48.708;9.394;2022-07-11T04:11:30;2.67;;;1.30;;
15848;SDS011;8024;48.708;9.394;2022-07-11T04:13:57;4.33;;;1.20;;
15848;SDS011;8024;48.708;9.394;2022-07-11T04:16:26;1.93;;;1.17;;
15848;SDS011;8024;48.708;9.394;2022-07-11T04:18:53;3.43;;;1.17;;
15848;SDS011;8024;48.708;9.394;2022-07-11T04:21:20;2.53;;;1.10;;
15848;SDS011;8024;48.708;9.394;2022-07-11T04:23:47;3.53;;;1.67;;
15848;SDS011;8024;48.708;9.394;2022-07-11T04:26:15;1.63;;;1.10;;
15848;SDS011;8024;48.708;9.394;2022-07-11T04:28:42;1.93;;;1.03;;
15848;SDS011;8024;48.708;9.394;2022-07-11T04:31:09;2.73;;;1.37;;
15848;SDS011;8024;48.708;9.394;2022-07-11T04:33:38;2.13;;;1.50;;
15848;SDS011;8024;48.708;9.394;2022-07-11T04:36:05;1.53;;;1.10;;
15848;SDS011;8024;48.708;9.394;2022-07-11T04:38:33;1.33;;;0.90;;
15848;SDS011;8024;48.708;9.394;2022-07-11T04:41:00;0.97;;;0.90;;
15848;SDS011;8024;48.708;9.394;2022-07-11T04:43:27;3.07;;;1.30;;
15848;SDS011;8024;48.708;9.394;2022-07-11T04:45:54;1.97;;;1.10;;
15848;SDS011;8024;48.708;9.394;2022-07-11T04:48:22;1.20;;;1.10;;
15848;SDS011;8024;48.708;9.394;2022-07-11T04:50:50;1.73;;;1.10;;
15848;SDS011;8024;48.708;9.394;2022-07-11T04:53:18;1.70;;;1.53;;
15848;SDS011;8024;48.708;9.394;2022-07-11T04:55:45;1.20;;;1.10;;
15848;SDS011;8024;48.708;9.394;2022-07-11T04:58:12;1.27;;;1.17;;
15848;SDS011;8024;48.708;9.394;2022-07-11T05:00:39;1.30;;;1.20;;
15848;SDS011;8024;48.708;9.394;2022-07-11T05:03:07;2.40;;;1.40;;
15848;SDS011;8024;48.708;9.394;2022-07-11T05:05:34;1.97;;;1.13;;
15848;SDS011;8024;48.708;9.394;2022-07-11T05:08:03;2.37;;;1.10;;
15848;SDS011;8024;48.708;9.394;2022-07-11T05:10:30;3.57;;;1.07;;
15848;SDS011;8024;48.708;9.394;2022-07-11T05:13:01;1.57;;;1.30;;
15848;SDS011;8024;48.708;9.394;2022-07-11T05:15:28;1.10;;;1.00;;
15848;SDS011;8024;48.708;9.394;2022-07-11T05:17:55;1.17;;;1.10;;
15848;SDS011;8024;48.708;9.394;2022-07-11T05:20:22;1.53;;;1.00;;
15848;SDS011;8024;48.708;9.394;2022-07-11T05:22:50;1.77;;;1.13;;
15848;SDS011;8024;48.708;9.394;2022-07-11T05:25:18;3.27;;;1.67;;
15848;SDS011;8024;48.708;9.394;2022-07-11T05:27:45;3.60;;;1.17;;
15848;SDS011;8024;48.708;9.394;2022-07-11T05:30:13;2.93;;;1.50;;
15848;SDS011;8024;48.708;9.394;2022-07-11T05:32:40;2.43;;;1.40;;
15848;SDS011;8024;48.708;9.394;2022-07-11T05:35:08;2.90;;;1.77;;
15848;SDS011;8024;48.708;9.394;2022-07-11T05:37:35;2.67;;;1.33;;
15848;SDS011;8024;48.708;9.394;2022-07-11T05:40:03;2.73;;;1.60;;
15848;SDS011;8024;48.708;9.394;2022-07-11T05:42:32;4.60;;;1.77;;
15848;SDS011;8024;48.708;9.394;2022-07-11T05:45:00;2.33;;;1.40;;
15848;SDS011;8024;48.708;9.394;2022-07-11T05:47:27;2.23;;;1.20;;
15848;SDS011;8024;48.708;9.394;2022-07-11T05:49:54;1.57;;;1.47;;
15848;SDS011;8024;48.708;9.394;2022-07-11T05:52:22;1.40;;;1.30;;
15848;SDS011;8024;48.708;9.394;2022-07-11T05:54:49;4.50;;;1.60;;
15848;SDS011;8024;48.708;9.394;2022-07-11T05:57:16;1.77;;;1.23;;
15848;SDS011;8024;48.708;9.394;2022-07-11T05:59:45;2.37;;;1.20;;
15848;SDS011;8024;48.708;9.394;2022-07-11T06:02:12;3.10;;;1.50;;
15848;SDS011;8024;48.708;9.394;2022-07-11T06:04:39;2.70;;;1.60;;
15848;SDS011;8024;48.708;9.394;2022-07-11T06:07:07;4.53;;;1.40;;
15848;SDS011;8024;48.708;9.394;2022-07-11T06:09:35;2.33;;;1.20;;
15848;SDS011;8024;48.708;9.394;2022-07-11T06:12:01;3.07;;;1.30;;
15848;SDS011;8024;48.708;9.394;2022-07-11T06:14:28;2.57;;;1.27;;
15848;SDS011;8024;48.708;9.394;2022-07-11T06:16:57;1.70;;;1.20;;
15848;SDS011;8024;48.708;9.394;2022-07-11T06:19:24;3.90;;;1.50;;
15848;SDS011;8024;48.708;9.394;2022-07-11T06:21:51;2.53;;;1.27;;
15848;SDS011;8024;48.708;9.394;2022-07-11T06:24:19;2.67;;;1.50;;
15848;SDS011;8024;48.708;9.394;2022-07-11T06:26:46;1.50;;;1.37;;
15848;SDS011;8024;48.708;9.394;2022-07-11T06:29:13;2.93;;;1.70;;
15848;SDS011;8024;48.708;9.394;2022-07-11T06:31:40;3.00;;;1.60;;
15848;SDS011;8024;48.708;9.394;2022-07-11T06:34:09;1.63;;;1.20;;
15848;SDS011;8024;48.708;9.394;2022-07-11T06:36:37;1.63;;;1.50;;
15848;SDS011;8024;48.708;9.394;2022-07-11T06:39:04;2.20;;;1.60;;
15848;SDS011;8024;48.708;9.394;2022-07-11T06:41:31;2.47;;;1.73;;
15848;SDS011;8024;48.708;9.394;2022-07-11T06:43:58;3.53;;;2.33;;
15848;SDS011;8024;48.708;9.394;2022-07-11T06:46:25;2.03;;;1.70;;
15848;SDS011;8024;48.708;9.394;2022-07-11T06:48:53;1.83;;;1.73;;
15848;SDS011;8024;48.708;9.394;2022-07-11T06:51:22;2.13;;;2.00;;
15848;SDS011;8024;48.708;9.394;2022-07-11T06:53:49;3.63;;;1.93;;
15848;SDS011;8024;48.708;9.394;2022-07-11T06:56:18;2.60;;;1.97;;
15848;SDS011;8024;48.708;9.394;2022-07-11T06:58:45;2.50;;;1.80;;
15848;SDS011;8024;48.708;9.394;2022-07-11T07:01:12;2.83;;;2.07;;
15848;SDS011;8024;48.708;9.394;2022-07-11T07:03:39;4.83;;;2.07;;
15848;SDS011;8024;48.708;9.394;2022-07-11T07:06:07;3.93;;;1.77;;
15848;SDS011;8024;48.708;9.394;2022-07-11T07:08:35;2.17;;;1.90;;
15848;SDS011;8024;48.708;9.394;2022-07-11T07:11:02;5.77;;;2.00;;
15848;SDS011;8024;48.708;9.394;2022-07-11T07:13:30;2.20;;;2.00;;
15848;SDS011;8024;48.708;9.394;2022-07-11T07:15:57;2.03;;;1.90;;
15848;SDS011;8024;48.708;9.394;2022-07-11T07:18:24;2.60;;;2.10;;
15848;SDS011;8024;48.708;9.394;2022-07-11T07:20:51;2.50;;;1.93;;
15848;SDS011;8024;48.708;9.394;2022-07-11T07:23:19;2.13;;;2.03;;
15848;SDS011;8024;48.708;9.394;2022-07-11T07:25:48;2.53;;;1.60;;
15848;SDS011;8024;48.708;9.394;2022-07-11T07:28:15;1.73;;;1.63;;
15848;SDS011;8024;48.708;9.394;2022-07-11T07:30:42;2.50;;;2.20;;
15848;SDS011;8024;48.708;9.394;2022-07-11T07:33:10;1.80;;;1.70;;
15848;SDS011;8024;48.708;9.394;2022-07-11T07:35:38;2.40;;;2.20;;
15848;SDS011;8024;48.708;9.394;2022-07-11T07:38:05;2.27;;;1.83;;
15848;SDS011;8024;48.708;9.394;2022-07-11T07:40:32;2.23;;;2.03;;
15848;SDS011;8024;48.708;9.394;2022-07-11T07:43:01;2.63;;;2.43;;
15848;SDS011;8024;48.708;9.394;2022-07-11T07:45:28;2.83;;;2.57;;
15848;SDS011;8024;48.708;9.394;2022-07-11T07:47:55;1.93;;;1.83;;
15848;SDS011;8024;48.708;9.394;2022-07-11T07:50:23;2.93;;;1.97;;
15848;SDS011;8024;48.708;9.394;2022-07-11T07:52:51;2.70;;;1.93;;
15848;SDS011;8024;48.708;9.394;2022-07-11T07:55:18;4.43;;;1.93;;
15848;SDS011;8024;48.708;9.394;2022-07-11T07:57:45;2.93;;;1.97;;
15848;SDS011;8024;48.708;9.394;2022-07-11T08:00:14;2.57;;;2.20;;
15848;SDS011;8024;48.708;9.394;2022-07-11T08:03:03;3.20;;;2.03;;
15848;SDS011;8024;48.708;9.394;2022-07-11T08:05:31;2.17;;;2.00;;
15848;SDS011;8024;48.708;9.394;2022-07-11T08:07:58;2.40;;;2.03;;
15848;SDS011;8024;48.708;9.394;2022-07-11T08:10:26;1.97;;;1.80;;
15848;SDS011;8024;48.708;9.394;2022-07-11T08:12:53;1.70;;;1.70;;
15848;SDS011;8024;48.708;9.394;2022-07-11T08:15:22;7.03;;;2.57;;
15848;SDS011;8024;48.708;9.394;2022-07-11T08:17:49;2.13;;;1.93;;
15848;SDS011;8024;48.708;9.394;2022-07-11T08:20:17;3.13;;;1.80;;
15848;SDS011;8024;48.708;9.394;2022-07-11T08:22:45;1.87;;;1.40;;
15848;SDS011;8024;48.708;9.394;2022-07-11T08:25:12;1.50;;;1.40;;
15848;SDS011;8024;48.708;9.394;2022-07-11T08:27:39;3.27;;;1.50;;
15848;SDS011;8024;48.708;9.394;2022-07-11T08:30:07;1.67;;;1.57;;
15848;SDS011;8024;48.708;9.394;2022-07-11T08:32:38;2.77;;;1.40;;
15848;SDS011;8024;48.708;9.394;2022-07-11T08:35:06;1.57;;;1.10;;
15848;SDS011;8024;48.708;9.394;2022-07-11T08:37:34;2.23;;;0.90;;
15848;SDS011;8024;48.708;9.394;2022-07-11T08:40:02;1.73;;;1.10;;
15848;SDS011;8024;48.708;9.394;2022-07-11T08:42:30;2.40;;;0.80;;
15848;SDS011;8024;48.708;9.394;2022-07-11T08:44:57;2.23;;;1.00;;
15848;SDS011;8024;48.708;9.394;2022-07-11T08:47:25;1.60;;;1.23;;
15848;SDS011;8024;48.708;9.394;2022-07-11T08:49:55;1.77;;;1.17;;
15848;SDS011;8024;48.708;9.394;2022-07-11T08:52:24;1.83;;;1.10;;
15848;SDS011;8024;48.708;9.394;2022-07-11T08:54:52;1.07;;;0.80;;
15848;SDS011;8024;48.708;9.394;2022-07-11T08:57:19;2.33;;;0.90;;
15848;SDS011;8024;48.708;9.394;2022-07-11T08:59:46;1.40;;;0.83;;
15848;SDS011;8024;48.708;9.394;2022-07-11T09:02:15;0.63;;;0.60;;
15848;SDS011;8024;48.708;9.394;2022-07-11T09:04:42;0.50;;;0.50;;
15848;SDS011;8024;48.708;9.394;2022-07-11T09:07:12;0.87;;;0.43;;
15848;SDS011;8024;48.708;9.394;2022-07-11T09:09:39;1.27;;;0.40;;
15848;SDS011;8024;48.708;9.394;2022-07-11T09:12:09;0.20;;;0.20;;
15848;SDS011;8024;48.708;9.394;2022-07-11T09:14:38;0.67;;;0.50;;
15848;SDS011;8024;48.708;9.394;2022-07-11T09:17:05;0.30;;;0.30;;
15848;SDS011;8024;48.708;9.394;2022-07-11T09:19:33;0.80;;;0.50;;
15848;SDS011;8024;48.708;9.394;2022-07-11T09:22:04;1.37;;;0.43;;
15848;SDS011;8024;48.708;9.394;2022-07-11T09:24:58;0.93;;;0.47;;
15848;SDS011;8024;48.708;9.394;2022-07-11T09:27:47;1.43;;;0.50;;
15848;SDS011;8024;48.708;9.394;2022-07-11T09:30:19;0.33;;;0.33;;
15848;SDS011;8024;48.708;9.394;2022-07-11T09:32:52;1.47;;;0.40;;
15848;SDS011;8024;48.708;9.394;2022-07-11T09:35:21;1.03;;;0.43;;
15848;SDS011;8024;48.708;9.394;2022-07-11T09:37:49;0.43;;;0.43;;
15848;SDS011;8024;48.708;9.394;2022-07-11T09:40:17;0.40;;;0.40;;
15848;SDS011;8024;48.708;9.394;2022-07-11T09:42:47;0.43;;;0.40;;
15848;SDS011;8024;48.708;9.394;2022-07-11T09:45:16;1.10;;;0.50;;
15848;SDS011;8024;48.708;9.394;2022-07-11T09:47:44;0.93;;;0.40;;
15848;SDS011;8024;48.708;9.394;2022-07-11T09:50:12;0.90;;;0.50;;
15848;SDS011;8024;48.708;9.394;2022-07-11T09:52:44;0.40;;;0.40;;
15848;SDS011;8024;48.708;9.394;2022-07-11T09:55:27;1.03;;;0.50;;
15848;SDS011;8024;48.708;9.394;2022-07-11T09:57:55;0.53;;;0.53;;
15848;SDS011;8024;48.708;9.394;2022-07-11T10:00:22;0.50;;;0.50;;
15848;SDS011;8024;48.708;9.394;2022-07-11T10:02:51;0.97;;;0.60;;
15848;SDS011;8024;48.708;9.394;2022-07-11T10:05:20;0.40;;;0.40;;
15848;SDS011;8024;48.708;9.394;2022-07-11T10:07:47;0.83;;;0.40;;
15848;SDS011;8024;48.708;9.394;2022-07-11T10:10:15;1.05;;;0.50;;
15848;SDS011;8024;48.708;9.394;2022-07-11T10:12:43;0.60;;;0.60;;
15848;SDS011;8024;48.708;9.394;2022-07-11T10:15:14;0.40;;;0.30;;
15848;SDS011;8024;48.708;9.394;2022-07-11T10:17:44;0.40;;;0.33;;
15848;SDS011;8024;48.708;9.394;2022-07-11T10:20:20;0.22;;;0.22;;
15848;SDS011;8024;48.708;9.394;2022-07-11T10:22:53;2.53;;;0.50;;
15848;SDS011;8024;48.708;9.394;2022-07-11T10:25:26;1.37;;;0.33;;
15848;SDS011;8024;48.708;9.394;2022-07-11T10:28:11;4.93;;;1.30;;
15848;SDS011;8024;48.708;9.394;2022-07-11T10:30:49;0.70;;;0.40;;
15848;SDS011;8024;48.708;9.394;2022-07-11T10:33:18;3.00;;;0.63;;
15848;SDS011;8024;48.708;9.394;2022-07-11T10:35:46;0.67;;;0.30;;
15848;SDS011;8024;48.708;9.394;2022-07-11T10:38:15;4.70;;;0.77;;
15848;SDS011;8024;48.708;9.394;2022-07-11T10:40:43;1.80;;;0.60;;
15848;SDS011;8024;48.708;9.394;2022-07-11T10:43:14;1.10;;;0.40;;
15848;SDS011;8024;48.708;9.394;2022-07-11T10:45:55;1.00;;;0.40;;
15848;SDS011;8024;48.708;9.394;2022-07-11T10:48:23;0.38;;;0.38;;
15848;SDS011;8024;48.708;9.394;2022-07-11T10:51:02;0.47;;;0.32;;
15848;SDS011;8024;48.708;9.394;2022-07-11T10:53:44;1.20;;;0.30;;
15848;SDS011;8024;48.708;9.394;2022-07-11T10:59:08;2.88;;;0.40;;
15848;SDS011;8024;48.708;9.394;2022-07-11T11:04:48;0.50;;;0.30;;
15848;SDS011;8024;48.708;9.394;2022-07-11T11:07:33;1.13;;;0.50;;
15848;SDS011;8024;48.708;9.394;2022-07-11T11:10:04;8.40;;;0.70;;
15848;SDS011;8024;48.708;9.394;2022-07-11T11:15:47;0.93;;;0.30;;
15848;SDS011;8024;48.708;9.394;2022-07-11T11:18:34;0.30;;;0.30;;
15848;SDS011;8024;48.708;9.394;2022-07-11T11:21:13;0.45;;;0.45;;
15848;SDS011;8024;48.708;9.394;2022-07-11T11:23:41;1.05;;;0.50;;
15848;SDS011;8024;48.708;9.394;2022-07-11T11:26:12;0.30;;;0.30;;
15848;SDS011;8024;48.708;9.394;2022-07-11T11:28:54;0.77;;;0.30;;
15848;SDS011;8024;48.708;9.394;2022-07-11T11:31:23;1.37;;;0.30;;
15848;SDS011;8024;48.708;9.394;2022-07-11T11:33:51;1.33;;;0.47;;
15848;SDS011;8024;48.708;9.394;2022-07-11T11:36:20;3.20;;;0.67;;
15848;SDS011;8024;48.708;9.394;2022-07-11T11:38:48;0.93;;;0.30;;
15848;SDS011;8024;48.708;9.394;2022-07-11T11:41:20;0.90;;;0.40;;
15848;SDS011;8024;48.708;9.394;2022-07-11T11:43:49;0.95;;;0.30;;
15848;SDS011;8024;48.708;9.394;2022-07-11T11:46:17;0.50;;;0.30;;
15848;SDS011;8024;48.708;9.394;2022-07-11T11:48:46;1.15;;;0.40;;
15848;SDS011;8024;48.708;9.394;2022-07-11T11:51:13;0.32;;;0.32;;
15848;SDS011;8024;48.708;9.394;2022-07-11T11:53:42;1.85;;;0.68;;
15848;SDS011;8024;48.708;9.394;2022-07-11T11:56:14;1.85;;;0.55;;
15848;SDS011;8024;48.708;9.394;2022-07-11T11:58:42;1.48;;;0.50;;
15848;SDS011;8024;48.708;9.394;2022-07-11T12:01:10;0.40;;;0.40;;
15848;SDS011;8024;48.708;9.394;2022-07-11T12:03:48;0.82;;;0.43;;
15848;SDS011;8024;48.708;9.394;2022-07-11T12:06:16;0.80;;;0.40;;
15848;SDS011;8024;48.708;9.394;2022-07-11T12:08:46;0.80;;;0.40;;
15848;SDS011;8024;48.708;9.394;2022-07-11T12:11:14;0.80;;;0.30;;
15848;SDS011;8024;48.708;9.394;2022-07-11T12:13:42;0.88;;;0.35;;
15848;SDS011;8024;48.708;9.394;2022-07-11T12:16:13;0.60;;;0.50;;
15848;SDS011;8024;48.708;9.394;2022-07-11T12:19:00;2.85;;;0.40;;
15848;SDS011;8024;48.708;9.394;2022-07-11T12:21:31;1.38;;;0.40;;
15848;SDS011;8024;48.708;9.394;2022-07-11T12:23:59;0.30;;;0.30;;
15848;SDS011;8024;48.708;9.394;2022-07-11T12:26:27;0.40;;;0.40;;
15848;SDS011;8024;48.708;9.394;2022-07-11T12:29:05;1.30;;;0.60;;
15848;SDS011;8024;48.708;9.394;2022-07-11T12:31:46;0.60;;;0.50;;
15848;SDS011;8024;48.708;9.394;2022-07-11T12:34:16;0.95;;;0.70;;
15848;SDS011;8024;48.708;9.394;2022-07-11T12:36:45;4.00;;;0.80;;
15848;SDS011;8024;48.708;9.394;2022-07-11T12:39:22;2.13;;;0.60;;
15848;SDS011;8024;48.708;9.394;2022-07-11T12:41:50;0.63;;;0.50;;
15848;SDS011;8024;48.708;9.394;2022-07-11T12:44:21;0.50;;;0.50;;
15848;SDS011;8024;48.708;9.394;2022-07-11T12:47:07;0.55;;;0.40;;
15848;SDS011;8024;48.708;9.394;2022-07-11T12:49:35;0.77;;;0.40;;
15848;SDS011;8024;48.708;9.394;2022-07-11T12:52:04;0.60;;;0.57;;
15848;SDS011;8024;48.708;9.394;2022-07-11T12:54:32;1.55;;;0.50;;
15848;SDS011;8024;48.708;9.394;2022-07-11T12:57:00;0.60;;;0.60;;
15848;SDS011;8024;48.708;9.394;2022-07-11T12:59:28;2.70;;;0.60;;
15848;SDS011;8024;48.708;9.394;2022-07-11T13:01:57;1.00;;;0.50;;
15848;SDS011;8024;48.708;9.394;2022-07-11T13:04:32;1.95;;;0.60;;
15848;SDS011;8024;48.708;9.394;2022-07-11T13:10:12;1.02;;;0.93;;
15848;SDS011;8024;48.708;9.394;2022-07-11T13:12:40;0.70;;;0.50;;
15848;SDS011;8024;48.708;9.394;2022-07-11T13:15:08;1.42;;;0.60;;
15848;SDS011;8024;48.708;9.394;2022-07-11T13:17:37;0.50;;;0.45;;
15848;SDS011;8024;48.708;9.394;2022-07-11T13:20:08;1.00;;;0.50;;
15848;SDS011;8024;48.708;9.394;2022-07-11T13:22:37;0.88;;;0.68;;
15848;SDS011;8024;48.708;9.394;2022-07-11T13:25:05;1.15;;;0.60;;
15848;SDS011;8024;48.708;9.394;2022-07-11T13:27:33;1.10;;;0.60;;
15848;SDS011;8024;48.708;9.394;2022-07-11T13:30:00;2.50;;;0.55;;
15848;SDS011;8024;48.708;9.394;2022-07-11T13:32:34;0.95;;;0.50;;
15848;SDS011;8024;48.708;9.394;2022-07-11T13:35:02;0.65;;;0.63;;
15848;SDS011;8024;48.708;9.394;2022-07-11T13:37:31;0.75;;;0.40;;
15848;SDS011;8024;48.708;9.394;2022-07-11T13:40:00;1.30;;;0.80;;
15848;SDS011;8024;48.708;9.394;2022-07-11T13:42:28;3.88;;;0.70;;
15848;SDS011;8024;48.708;9.394;2022-07-11T13:44:57;1.30;;;0.50;;
15848;SDS011;8024;48.708;9.394;2022-07-11T13:47:24;1.30;;;0.52;;
15848;SDS011;8024;48.708;9.394;2022-07-11T13:49:52;0.60;;;0.60;;
15848;SDS011;8024;48.708;9.394;2022-07-11T13:52:19;0.98;;;0.45;;
15848;SDS011;8024;48.708;9.394;2022-07-11T13:54:47;1.13;;;0.65;;
15848;SDS011;8024;48.708;9.394;2022-07-11T13:57:15;0.50;;;0.50;;
15848;SDS011;8024;48.708;9.394;2022-07-11T13:59:42;0.73;;;0.50;;
15848;SDS011;8024;48.708;9.394;2022-07-11T14:02:09;2.35;;;0.70;;
15848;SDS011;8024;48.708;9.394;2022-07-11T14:04:36;1.90;;;0.65;;
15848;SDS011;8024;48.708;9.394;2022-07-11T14:07:04;0.52;;;0.52;;
15848;SDS011;8024;48.708;9.394;2022-07-11T14:09:32;0.90;;;0.82;;
15848;SDS011;8024;48.708;9.394;2022-07-11T14:12:01;2.22;;;0.50;;
15848;SDS011;8024;48.708;9.394;2022-07-11T14:14:29;1.42;;;0.80;;
15848;SDS011;8024;48.708;9.394;2022-07-11T14:16:57;1.52;;;1.23;;
15848;SDS011;8024;48.708;9.394;2022-07-11T14:19:25;0.52;;;0.52;;
15848;SDS011;8024;48.708;9.394;2022-07-11T14:21:52;0.55;;;0.47;;
15848;SDS011;8024;48.708;9.394;2022-07-11T14:24:20;1.30;;;0.70;;
15848;SDS011;8024;48.708;9.394;2022-07-11T14:26:47;0.77;;;0.77;;
15848;SDS011;8024;48.708;9.394;2022-07-11T14:29:16;0.82;;;0.77;;
15848;SDS011;8024;48.708;9.394;2022-07-11T14:31:43;0.90;;;0.90;;
15848;SDS011;8024;48.708;9.394;2022-07-11T14:34:11;1.45;;;0.82;;
15848;SDS011;8024;48.708;9.394;2022-07-11T14:36:38;1.27;;;0.90;;
15848;SDS011;8024;48.708;9.394;2022-07-11T14:39:06;0.68;;;0.68;;
15848;SDS011;8024;48.708;9.394;2022-07-11T14:41:34;1.40;;;0.85;;
15848;SDS011;8024;48.708;9.394;2022-07-11T14:44:01;1.08;;;0.95;;
15848;SDS011;8024;48.708;9.394;2022-07-11T14:46:31;0.80;;;0.80;;
15848;SDS011;8024;48.708;9.394;2022-07-11T14:48:58;1.13;;;0.80;;
15848;SDS011;8024;48.708;9.394;2022-07-11T14:51:26;0.90;;;0.88;;
15848;SDS011;8024;48.708;9.394;2022-07-11T14:53:53;1.60;;;1.00;;
15848;SDS011;8024;48.708;9.394;2022-07-11T14:56:21;3.00;;;0.75;;
15848;SDS011;8024;48.708;9.394;2022-07-11T14:58:48;1.77;;;0.60;;
15848;SDS011;8024;48.708;9.394;2022-07-11T15:01:15;1.63;;;0.77;;
15848;SDS011;8024;48.708;9.394;2022-07-11T15:03:44;2.75;;;0.70;;
15848;SDS011;8024;48.708;9.394;2022-07-11T15:06:12;0.70;;;0.70;;
15848;SDS011;8024;48.708;9.394;2022-07-11T15:08:40;1.08;;;0.88;;
15848;SDS011;8024;48.708;9.394;2022-07-11T15:11:26;1.23;;;0.98;;
15848;SDS011;8024;48.708;9.394;2022-07-11T15:14:11;2.63;;;0.88;;
15848;SDS011;8024;48.708;9.394;2022-07-11T15:16:40;1.00;;;0.90;;
15848;SDS011;8024;48.708;9.394;2022-07-11T15:19:12;0.80;;;0.80;;
15848;SDS011;8024;48.708;9.394;2022-07-11T15:21:39;1.00;;;1.00;;
15848;SDS011;8024;48.708;9.394;2022-07-11T15:24:06;1.15;;;0.60;;